sensor_id;sensor_type;location;lat;lon;timestamp;P1;durP1;ratioP1;P2;durP2;ratioP2
70239;SDS011;57629;52.256;10.414;2022-11-20T00:00:51;6.53;;;5.00;;
70239;SDS011;57629;52.256;10.414;2022-11-20T00:01:52;7.38;;;5.53;;
70239;SDS011;57629;52.256;10.414;2022-11-20T00:02:53;6.47;;;5.78;;
70239;SDS011;57629;52.256;10.414;2022-11-20T00:03:54;6.40;;;5.37;;
70239;SDS011;57629;52.256;10.414;2022-11-20T00:04:55;6.53;;;5.15;;
70239;SDS011;57629;52.256;10.414;2022-11-20T00:05:59;6.78;;;5.25;;
70239;SDS011;57629;52.256;10.414;2022-11-20T00:06:59;7.15;;;5.30;;
70239;SDS011;57629;52.256;10.414;2022-11-20T00:08:00;6.20;;;5.20;;
70239;SDS011;57629;52.256;10.414;2022-11-20T00:09:02;6.70;;;5.50;;
70239;SDS011;57629;52.256;10.414;2022-11-20T00:10:03;6.75;;;5.50;;
70239;SDS011;57629;52.256;10.414;2022-11-20T00:11:04;6.57;;;5.47;;
70239;SDS011;57629;52.256;10.414;2022-11-20T00:12:06;6.05;;;5.20;;
70239;SDS011;57629;52.256;10.414;2022-11-20T00:13:06;6.80;;;4.97;;
70239;SDS011;57629;52.256;10.414;2022-11-20T00:14:08;6.88;;;5.07;;
70239;SDS011;57629;52.256;10.414;2022-11-20T00:15:11;6.05;;;5.05;;
70239;SDS011;57629;52.256;10.414;2022-11-20T00:16:13;7.00;;;4.97;;
70239;SDS011;57629;52.256;10.414;2022-11-20T00:17:15;6.47;;;5.13;;
70239;SDS011;57629;52.256;10.414;2022-11-20T00:18:16;6.23;;;5.50;;
70239;SDS011;57629;52.256;10.414;2022-11-20T00:19:16;6.35;;;4.95;;
70239;SDS011;57629;52.256;10.414;2022-11-20T00:20:17;6.50;;;4.90;;
70239;SDS011;57629;52.256;10.414;2022-11-20T00:21:18;6.13;;;4.93;;
70239;SDS011;57629;52.256;10.414;2022-11-20T00:22:20;5.63;;;4.40;;
70239;SDS011;57629;52.256;10.414;2022-11-20T00:23:21;6.03;;;5.20;;
70239;SDS011;57629;52.256;10.414;2022-11-20T00:24:21;6.53;;;5.05;;
70239;SDS011;57629;52.256;10.414;2022-11-20T00:25:22;6.20;;;4.70;;
70239;SDS011;57629;52.256;10.414;2022-11-20T00:26:23;5.72;;;4.45;;
70239;SDS011;57629;52.256;10.414;2022-11-20T00:27:25;5.85;;;4.97;;
70239;SDS011;57629;52.256;10.414;2022-11-20T00:28:25;6.13;;;4.87;;
70239;SDS011;57629;52.256;10.414;2022-11-20T00:29:26;6.63;;;5.30;;
70239;SDS011;57629;52.256;10.414;2022-11-20T00:30:28;6.43;;;5.50;;
70239;SDS011;57629;52.256;10.414;2022-11-20T00:31:29;6.32;;;5.18;;
70239;SDS011;57629;52.256;10.414;2022-11-20T00:32:30;5.93;;;4.97;;
70239;SDS011;57629;52.256;10.414;2022-11-20T00:33:31;5.65;;;4.72;;
70239;SDS011;57629;52.256;10.414;2022-11-20T00:34:32;5.83;;;5.20;;
70239;SDS011;57629;52.256;10.414;2022-11-20T00:35:32;5.75;;;5.05;;
70239;SDS011;57629;52.256;10.414;2022-11-20T00:36:33;5.57;;;4.67;;
70239;SDS011;57629;52.256;10.414;2022-11-20T00:37:34;7.72;;;5.07;;
70239;SDS011;57629;52.256;10.414;2022-11-20T00:38:34;6.10;;;4.60;;
70239;SDS011;57629;52.256;10.414;2022-11-20T00:39:35;5.63;;;4.77;;
70239;SDS011;57629;52.256;10.414;2022-11-20T00:40:36;6.28;;;5.45;;
70239;SDS011;57629;52.256;10.414;2022-11-20T00:41:36;5.80;;;5.00;;
70239;SDS011;57629;52.256;10.414;2022-11-20T00:42:37;6.10;;;4.97;;
70239;SDS011;57629;52.256;10.414;2022-11-20T00:43:38;6.10;;;5.20;;
70239;SDS011;57629;52.256;10.414;2022-11-20T00:44:38;5.90;;;4.93;;
70239;SDS011;57629;52.256;10.414;2022-11-20T00:45:40;5.82;;;4.60;;
70239;SDS011;57629;52.256;10.414;2022-11-20T00:46:41;5.43;;;4.60;;
70239;SDS011;57629;52.256;10.414;2022-11-20T00:47:42;5.05;;;4.55;;
70239;SDS011;57629;52.256;10.414;2022-11-20T00:48:42;6.10;;;4.60;;
70239;SDS011;57629;52.256;10.414;2022-11-20T00:49:43;5.60;;;4.30;;
70239;SDS011;57629;52.256;10.414;2022-11-20T00:50:44;6.32;;;5.03;;
70239;SDS011;57629;52.256;10.414;2022-11-20T00:51:45;5.43;;;4.13;;
70239;SDS011;57629;52.256;10.414;2022-11-20T00:52:45;5.35;;;4.50;;
70239;SDS011;57629;52.256;10.414;2022-11-20T00:53:46;6.63;;;4.90;;
70239;SDS011;57629;52.256;10.414;2022-11-20T00:54:47;5.32;;;4.40;;
70239;SDS011;57629;52.256;10.414;2022-11-20T00:55:54;5.50;;;4.40;;
70239;SDS011;57629;52.256;10.414;2022-11-20T00:56:55;5.13;;;4.63;;
70239;SDS011;57629;52.256;10.414;2022-11-20T00:57:56;5.57;;;4.57;;
70239;SDS011;57629;52.256;10.414;2022-11-20T00:58:58;5.27;;;4.50;;
70239;SDS011;57629;52.256;10.414;2022-11-20T01:00:00;6.25;;;4.97;;
70239;SDS011;57629;52.256;10.414;2022-11-20T01:01:02;5.55;;;4.60;;
70239;SDS011;57629;52.256;10.414;2022-11-20T01:02:04;5.72;;;4.72;;
70239;SDS011;57629;52.256;10.414;2022-11-20T01:03:05;5.87;;;4.77;;
70239;SDS011;57629;52.256;10.414;2022-11-20T01:04:05;6.53;;;4.75;;
70239;SDS011;57629;52.256;10.414;2022-11-20T01:05:06;6.30;;;4.47;;
70239;SDS011;57629;52.256;10.414;2022-11-20T01:06:09;7.03;;;4.70;;
70239;SDS011;57629;52.256;10.414;2022-11-20T01:07:12;5.95;;;4.75;;
70239;SDS011;57629;52.256;10.414;2022-11-20T01:08:12;6.70;;;5.27;;
70239;SDS011;57629;52.256;10.414;2022-11-20T01:09:13;6.60;;;4.35;;
70239;SDS011;57629;52.256;10.414;2022-11-20T01:10:14;5.18;;;4.35;;
70239;SDS011;57629;52.256;10.414;2022-11-20T01:11:16;5.93;;;4.82;;
70239;SDS011;57629;52.256;10.414;2022-11-20T01:12:18;5.17;;;4.40;;
70239;SDS011;57629;52.256;10.414;2022-11-20T01:13:18;5.50;;;4.20;;
70239;SDS011;57629;52.256;10.414;2022-11-20T01:14:19;6.60;;;5.00;;
70239;SDS011;57629;52.256;10.414;2022-11-20T01:15:20;5.80;;;4.60;;
70239;SDS011;57629;52.256;10.414;2022-11-20T01:16:22;5.13;;;4.32;;
70239;SDS011;57629;52.256;10.414;2022-11-20T01:17:25;6.05;;;4.63;;
70239;SDS011;57629;52.256;10.414;2022-11-20T01:18:25;5.27;;;4.40;;
70239;SDS011;57629;52.256;10.414;2022-11-20T01:19:26;5.93;;;4.90;;
70239;SDS011;57629;52.256;10.414;2022-11-20T01:20:26;5.83;;;4.50;;
70239;SDS011;57629;52.256;10.414;2022-11-20T01:21:28;5.22;;;4.13;;
70239;SDS011;57629;52.256;10.414;2022-11-20T01:22:30;5.00;;;4.38;;
70239;SDS011;57629;52.256;10.414;2022-11-20T01:23:31;4.77;;;4.17;;
70239;SDS011;57629;52.256;10.414;2022-11-20T01:24:33;5.10;;;4.10;;
70239;SDS011;57629;52.256;10.414;2022-11-20T01:25:34;5.90;;;4.65;;
70239;SDS011;57629;52.256;10.414;2022-11-20T01:26:35;4.85;;;3.88;;
70239;SDS011;57629;52.256;10.414;2022-11-20T01:27:37;6.05;;;4.55;;
70239;SDS011;57629;52.256;10.414;2022-11-20T01:28:38;6.03;;;4.50;;
70239;SDS011;57629;52.256;10.414;2022-11-20T01:29:39;5.93;;;4.82;;
70239;SDS011;57629;52.256;10.414;2022-11-20T01:30:39;4.95;;;3.90;;
70239;SDS011;57629;52.256;10.414;2022-11-20T01:31:41;5.17;;;4.20;;
70239;SDS011;57629;52.256;10.414;2022-11-20T01:32:43;4.80;;;4.10;;
70239;SDS011;57629;52.256;10.414;2022-11-20T01:33:44;5.40;;;4.13;;
70239;SDS011;57629;52.256;10.414;2022-11-20T01:34:46;5.00;;;4.13;;
70239;SDS011;57629;52.256;10.414;2022-11-20T01:35:47;5.70;;;4.30;;
70239;SDS011;57629;52.256;10.414;2022-11-20T01:36:48;5.03;;;4.13;;
70239;SDS011;57629;52.256;10.414;2022-11-20T01:37:49;5.50;;;4.55;;
70239;SDS011;57629;52.256;10.414;2022-11-20T01:38:51;5.80;;;4.80;;
70239;SDS011;57629;52.256;10.414;2022-11-20T01:39:51;6.28;;;4.55;;
70239;SDS011;57629;52.256;10.414;2022-11-20T01:40:55;4.80;;;4.22;;
70239;SDS011;57629;52.256;10.414;2022-11-20T01:41:56;5.60;;;4.55;;
70239;SDS011;57629;52.256;10.414;2022-11-20T01:42:59;5.10;;;4.30;;
70239;SDS011;57629;52.256;10.414;2022-11-20T01:44:13;6.07;;;4.53;;
70239;SDS011;57629;52.256;10.414;2022-11-20T01:46:55;5.22;;;4.15;;
70239;SDS011;57629;52.256;10.414;2022-11-20T01:47:59;4.93;;;4.28;;
70239;SDS011;57629;52.256;10.414;2022-11-20T01:49:00;4.87;;;4.00;;
70239;SDS011;57629;52.256;10.414;2022-11-20T01:50:05;4.93;;;4.30;;
70239;SDS011;57629;52.256;10.414;2022-11-20T01:51:13;5.47;;;4.50;;
70239;SDS011;57629;52.256;10.414;2022-11-20T01:52:19;5.47;;;4.70;;
70239;SDS011;57629;52.256;10.414;2022-11-20T01:53:23;5.10;;;4.10;;
70239;SDS011;57629;52.256;10.414;2022-11-20T01:54:30;4.90;;;4.10;;
70239;SDS011;57629;52.256;10.414;2022-11-20T01:55:35;5.20;;;4.32;;
70239;SDS011;57629;52.256;10.414;2022-11-20T01:56:39;5.32;;;4.35;;
70239;SDS011;57629;52.256;10.414;2022-11-20T01:57:43;5.85;;;4.95;;
70239;SDS011;57629;52.256;10.414;2022-11-20T01:58:47;5.88;;;4.55;;
70239;SDS011;57629;52.256;10.414;2022-11-20T01:59:51;5.40;;;4.20;;
70239;SDS011;57629;52.256;10.414;2022-11-20T02:00:54;5.07;;;4.20;;
70239;SDS011;57629;52.256;10.414;2022-11-20T02:01:56;4.70;;;4.20;;
70239;SDS011;57629;52.256;10.414;2022-11-20T02:02:57;4.93;;;4.07;;
70239;SDS011;57629;52.256;10.414;2022-11-20T02:04:01;4.95;;;3.97;;
70239;SDS011;57629;52.256;10.414;2022-11-20T02:05:04;4.93;;;4.30;;
70239;SDS011;57629;52.256;10.414;2022-11-20T02:06:13;5.82;;;4.35;;
70239;SDS011;57629;52.256;10.414;2022-11-20T02:07:19;5.15;;;4.45;;
70239;SDS011;57629;52.256;10.414;2022-11-20T02:08:21;5.45;;;4.13;;
70239;SDS011;57629;52.256;10.414;2022-11-20T02:09:23;5.18;;;4.18;;
70239;SDS011;57629;52.256;10.414;2022-11-20T02:10:23;6.33;;;4.40;;
70239;SDS011;57629;52.256;10.414;2022-11-20T02:11:24;4.97;;;4.13;;
70239;SDS011;57629;52.256;10.414;2022-11-20T02:12:25;5.20;;;4.20;;
70239;SDS011;57629;52.256;10.414;2022-11-20T02:13:25;5.75;;;4.47;;
70239;SDS011;57629;52.256;10.414;2022-11-20T02:14:26;5.18;;;4.30;;
70239;SDS011;57629;52.256;10.414;2022-11-20T02:15:28;5.13;;;4.13;;
70239;SDS011;57629;52.256;10.414;2022-11-20T02:16:29;5.13;;;4.20;;
70239;SDS011;57629;52.256;10.414;2022-11-20T02:17:34;5.15;;;4.25;;
70239;SDS011;57629;52.256;10.414;2022-11-20T02:18:35;5.40;;;4.32;;
70239;SDS011;57629;52.256;10.414;2022-11-20T02:19:36;5.43;;;4.22;;
70239;SDS011;57629;52.256;10.414;2022-11-20T02:20:36;4.90;;;4.10;;
70239;SDS011;57629;52.256;10.414;2022-11-20T02:21:39;4.93;;;4.05;;
70239;SDS011;57629;52.256;10.414;2022-11-20T02:22:47;4.75;;;4.20;;
70239;SDS011;57629;52.256;10.414;2022-11-20T02:23:55;4.97;;;3.70;;
70239;SDS011;57629;52.256;10.414;2022-11-20T02:25:07;4.95;;;4.05;;
70239;SDS011;57629;52.256;10.414;2022-11-20T02:26:10;5.32;;;4.13;;
70239;SDS011;57629;52.256;10.414;2022-11-20T02:27:15;5.05;;;4.22;;
70239;SDS011;57629;52.256;10.414;2022-11-20T02:28:16;5.50;;;4.30;;
70239;SDS011;57629;52.256;10.414;2022-11-20T02:29:19;5.47;;;4.50;;
70239;SDS011;57629;52.256;10.414;2022-11-20T02:30:25;4.85;;;4.22;;
70239;SDS011;57629;52.256;10.414;2022-11-20T02:31:26;5.68;;;4.22;;
70239;SDS011;57629;52.256;10.414;2022-11-20T02:32:27;5.20;;;4.20;;
70239;SDS011;57629;52.256;10.414;2022-11-20T02:33:29;5.43;;;4.45;;
70239;SDS011;57629;52.256;10.414;2022-11-20T02:34:30;4.10;;;3.50;;
70239;SDS011;57629;52.256;10.414;2022-11-20T02:35:41;4.93;;;4.20;;
70239;SDS011;57629;52.256;10.414;2022-11-20T02:36:44;4.97;;;4.00;;
70239;SDS011;57629;52.256;10.414;2022-11-20T02:37:47;4.85;;;3.90;;
70239;SDS011;57629;52.256;10.414;2022-11-20T02:38:48;4.95;;;4.22;;
70239;SDS011;57629;52.256;10.414;2022-11-20T02:39:51;4.57;;;3.97;;
70239;SDS011;57629;52.256;10.414;2022-11-20T02:40:52;4.85;;;3.85;;
70239;SDS011;57629;52.256;10.414;2022-11-20T02:41:53;5.00;;;4.20;;
70239;SDS011;57629;52.256;10.414;2022-11-20T02:42:54;5.00;;;3.95;;
70239;SDS011;57629;52.256;10.414;2022-11-20T02:43:56;4.90;;;3.80;;
70239;SDS011;57629;52.256;10.414;2022-11-20T02:44:56;4.97;;;3.97;;
70239;SDS011;57629;52.256;10.414;2022-11-20T02:45:57;5.10;;;4.10;;
70239;SDS011;57629;52.256;10.414;2022-11-20T02:46:58;4.53;;;3.72;;
70239;SDS011;57629;52.256;10.414;2022-11-20T02:47:59;5.17;;;4.07;;
70239;SDS011;57629;52.256;10.414;2022-11-20T02:49:00;5.45;;;4.60;;
70239;SDS011;57629;52.256;10.414;2022-11-20T02:50:01;5.10;;;3.92;;
70239;SDS011;57629;52.256;10.414;2022-11-20T02:51:03;5.22;;;4.10;;
70239;SDS011;57629;52.256;10.414;2022-11-20T02:52:04;5.47;;;4.18;;
70239;SDS011;57629;52.256;10.414;2022-11-20T02:53:04;4.10;;;3.70;;
70239;SDS011;57629;52.256;10.414;2022-11-20T02:54:05;5.20;;;4.05;;
70239;SDS011;57629;52.256;10.414;2022-11-20T02:55:07;4.85;;;3.85;;
70239;SDS011;57629;52.256;10.414;2022-11-20T02:56:09;4.95;;;3.88;;
70239;SDS011;57629;52.256;10.414;2022-11-20T02:57:09;5.17;;;3.90;;
70239;SDS011;57629;52.256;10.414;2022-11-20T02:58:10;5.65;;;4.53;;
70239;SDS011;57629;52.256;10.414;2022-11-20T02:59:10;5.10;;;4.00;;
70239;SDS011;57629;52.256;10.414;2022-11-20T03:00:12;4.70;;;3.92;;
70239;SDS011;57629;52.256;10.414;2022-11-20T03:01:13;4.50;;;3.73;;
70239;SDS011;57629;52.256;10.414;2022-11-20T03:02:14;4.70;;;3.80;;
70239;SDS011;57629;52.256;10.414;2022-11-20T03:03:14;4.90;;;4.03;;
70239;SDS011;57629;52.256;10.414;2022-11-20T03:04:15;5.28;;;4.47;;
70239;SDS011;57629;52.256;10.414;2022-11-20T03:05:15;4.63;;;3.85;;
70239;SDS011;57629;52.256;10.414;2022-11-20T03:06:16;5.10;;;4.47;;
70239;SDS011;57629;52.256;10.414;2022-11-20T03:07:17;6.10;;;4.53;;
70239;SDS011;57629;52.256;10.414;2022-11-20T03:08:17;5.57;;;4.00;;
70239;SDS011;57629;52.256;10.414;2022-11-20T03:09:18;5.05;;;4.00;;
70239;SDS011;57629;52.256;10.414;2022-11-20T03:10:20;5.37;;;4.23;;
70239;SDS011;57629;52.256;10.414;2022-11-20T03:11:21;5.38;;;3.90;;
70239;SDS011;57629;52.256;10.414;2022-11-20T03:12:21;4.88;;;3.78;;
70239;SDS011;57629;52.256;10.414;2022-11-20T03:13:22;4.90;;;3.87;;
70239;SDS011;57629;52.256;10.414;2022-11-20T03:14:24;4.70;;;4.10;;
70239;SDS011;57629;52.256;10.414;2022-11-20T03:15:25;5.70;;;4.50;;
70239;SDS011;57629;52.256;10.414;2022-11-20T03:16:25;5.00;;;4.25;;
70239;SDS011;57629;52.256;10.414;2022-11-20T03:17:26;5.33;;;4.30;;
70239;SDS011;57629;52.256;10.414;2022-11-20T03:18:27;4.85;;;4.20;;
70239;SDS011;57629;52.256;10.414;2022-11-20T03:19:28;4.70;;;3.97;;
70239;SDS011;57629;52.256;10.414;2022-11-20T03:20:29;5.10;;;3.93;;
70239;SDS011;57629;52.256;10.414;2022-11-20T03:21:29;4.95;;;4.07;;
70239;SDS011;57629;52.256;10.414;2022-11-20T03:22:30;5.28;;;4.32;;
70239;SDS011;57629;52.256;10.414;2022-11-20T03:23:31;4.57;;;4.07;;
70239;SDS011;57629;52.256;10.414;2022-11-20T03:24:32;4.93;;;3.95;;
70239;SDS011;57629;52.256;10.414;2022-11-20T03:25:34;5.20;;;4.40;;
70239;SDS011;57629;52.256;10.414;2022-11-20T03:26:35;5.10;;;4.50;;
70239;SDS011;57629;52.256;10.414;2022-11-20T03:27:35;4.73;;;3.70;;
70239;SDS011;57629;52.256;10.414;2022-11-20T03:28:36;4.70;;;4.20;;
70239;SDS011;57629;52.256;10.414;2022-11-20T03:29:37;5.40;;;4.30;;
70239;SDS011;57629;52.256;10.414;2022-11-20T03:30:38;4.80;;;4.30;;
70239;SDS011;57629;52.256;10.414;2022-11-20T03:31:39;4.82;;;4.03;;
70239;SDS011;57629;52.256;10.414;2022-11-20T03:32:40;4.77;;;3.83;;
70239;SDS011;57629;52.256;10.414;2022-11-20T03:33:41;4.55;;;3.97;;
70239;SDS011;57629;52.256;10.414;2022-11-20T03:34:43;5.65;;;4.25;;
70239;SDS011;57629;52.256;10.414;2022-11-20T03:35:43;4.83;;;3.80;;
70239;SDS011;57629;52.256;10.414;2022-11-20T03:36:44;5.03;;;4.10;;
70239;SDS011;57629;52.256;10.414;2022-11-20T03:37:44;4.77;;;3.87;;
70239;SDS011;57629;52.256;10.414;2022-11-20T03:38:46;5.03;;;4.50;;
70239;SDS011;57629;52.256;10.414;2022-11-20T03:39:47;4.47;;;4.03;;
70239;SDS011;57629;52.256;10.414;2022-11-20T03:40:49;5.13;;;4.20;;
70239;SDS011;57629;52.256;10.414;2022-11-20T03:41:50;5.13;;;4.10;;
70239;SDS011;57629;52.256;10.414;2022-11-20T03:42:50;4.90;;;3.72;;
70239;SDS011;57629;52.256;10.414;2022-11-20T03:43:51;5.50;;;4.00;;
70239;SDS011;57629;52.256;10.414;2022-11-20T03:44:53;4.20;;;3.53;;
70239;SDS011;57629;52.256;10.414;2022-11-20T03:45:54;4.82;;;4.00;;
70239;SDS011;57629;52.256;10.414;2022-11-20T03:46:55;4.97;;;4.00;;
70239;SDS011;57629;52.256;10.414;2022-11-20T03:47:56;5.60;;;4.50;;
70239;SDS011;57629;52.256;10.414;2022-11-20T03:48:56;5.63;;;4.30;;
70239;SDS011;57629;52.256;10.414;2022-11-20T03:49:57;5.07;;;4.00;;
70239;SDS011;57629;52.256;10.414;2022-11-20T03:51:07;4.95;;;4.20;;
70239;SDS011;57629;52.256;10.414;2022-11-20T03:52:09;4.85;;;4.32;;
70239;SDS011;57629;52.256;10.414;2022-11-20T03:53:10;4.97;;;3.70;;
70239;SDS011;57629;52.256;10.414;2022-11-20T03:54:10;5.38;;;4.20;;
70239;SDS011;57629;52.256;10.414;2022-11-20T03:55:11;5.97;;;4.00;;
70239;SDS011;57629;52.256;10.414;2022-11-20T03:56:14;5.00;;;4.25;;
70239;SDS011;57629;52.256;10.414;2022-11-20T03:57:15;4.57;;;3.72;;
70239;SDS011;57629;52.256;10.414;2022-11-20T03:58:16;4.93;;;4.00;;
70239;SDS011;57629;52.256;10.414;2022-11-20T03:59:16;5.25;;;3.90;;
70239;SDS011;57629;52.256;10.414;2022-11-20T04:00:17;5.43;;;3.80;;
70239;SDS011;57629;52.256;10.414;2022-11-20T04:01:19;4.78;;;3.55;;
70239;SDS011;57629;52.256;10.414;2022-11-20T04:02:21;4.68;;;3.90;;
70239;SDS011;57629;52.256;10.414;2022-11-20T04:03:21;6.00;;;4.87;;
70239;SDS011;57629;52.256;10.414;2022-11-20T04:04:22;5.15;;;4.50;;
70239;SDS011;57629;52.256;10.414;2022-11-20T04:05:23;4.97;;;4.20;;
70239;SDS011;57629;52.256;10.414;2022-11-20T04:06:24;4.13;;;3.47;;
70239;SDS011;57629;52.256;10.414;2022-11-20T04:07:26;4.75;;;4.00;;
70239;SDS011;57629;52.256;10.414;2022-11-20T04:08:27;4.70;;;4.03;;
70239;SDS011;57629;52.256;10.414;2022-11-20T04:09:28;5.32;;;4.30;;
70239;SDS011;57629;52.256;10.414;2022-11-20T04:10:29;4.97;;;4.30;;
70239;SDS011;57629;52.256;10.414;2022-11-20T04:11:31;4.50;;;3.87;;
70239;SDS011;57629;52.256;10.414;2022-11-20T04:12:33;5.10;;;4.25;;
70239;SDS011;57629;52.256;10.414;2022-11-20T04:13:33;5.13;;;4.40;;
70239;SDS011;57629;52.256;10.414;2022-11-20T04:14:34;4.57;;;3.70;;
70239;SDS011;57629;52.256;10.414;2022-11-20T04:15:35;5.32;;;4.28;;
70239;SDS011;57629;52.256;10.414;2022-11-20T04:16:35;4.60;;;3.73;;
70239;SDS011;57629;52.256;10.414;2022-11-20T04:17:36;5.20;;;4.60;;
70239;SDS011;57629;52.256;10.414;2022-11-20T04:18:37;4.80;;;4.30;;
70239;SDS011;57629;52.256;10.414;2022-11-20T04:19:37;6.57;;;4.78;;
70239;SDS011;57629;52.256;10.414;2022-11-20T04:20:38;4.40;;;3.90;;
70239;SDS011;57629;52.256;10.414;2022-11-20T04:21:39;5.03;;;3.80;;
70239;SDS011;57629;52.256;10.414;2022-11-20T04:22:40;5.10;;;4.28;;
70239;SDS011;57629;52.256;10.414;2022-11-20T04:23:40;4.80;;;4.10;;
70239;SDS011;57629;52.256;10.414;2022-11-20T04:24:41;4.97;;;4.05;;
70239;SDS011;57629;52.256;10.414;2022-11-20T04:25:41;4.77;;;3.90;;
70239;SDS011;57629;52.256;10.414;2022-11-20T04:26:43;5.20;;;4.25;;
70239;SDS011;57629;52.256;10.414;2022-11-20T04:27:44;5.07;;;4.10;;
70239;SDS011;57629;52.256;10.414;2022-11-20T04:28:45;4.83;;;3.70;;
70239;SDS011;57629;52.256;10.414;2022-11-20T04:29:45;5.53;;;4.13;;
70239;SDS011;57629;52.256;10.414;2022-11-20T04:30:46;4.80;;;4.23;;
70239;SDS011;57629;52.256;10.414;2022-11-20T04:31:47;4.78;;;4.10;;
70239;SDS011;57629;52.256;10.414;2022-11-20T04:32:47;5.40;;;4.30;;
70239;SDS011;57629;52.256;10.414;2022-11-20T04:33:48;5.55;;;4.13;;
70239;SDS011;57629;52.256;10.414;2022-11-20T04:34:49;5.63;;;4.15;;
70239;SDS011;57629;52.256;10.414;2022-11-20T04:35:49;4.97;;;3.90;;
70239;SDS011;57629;52.256;10.414;2022-11-20T04:36:50;4.40;;;3.95;;
70239;SDS011;57629;52.256;10.414;2022-11-20T04:37:51;5.10;;;3.80;;
70239;SDS011;57629;52.256;10.414;2022-11-20T04:38:52;5.15;;;4.20;;
70239;SDS011;57629;52.256;10.414;2022-11-20T04:39:54;4.90;;;4.30;;
70239;SDS011;57629;52.256;10.414;2022-11-20T04:40:58;4.70;;;4.05;;
70239;SDS011;57629;52.256;10.414;2022-11-20T04:42:00;4.70;;;4.20;;
70239;SDS011;57629;52.256;10.414;2022-11-20T04:43:01;4.80;;;4.00;;
70239;SDS011;57629;52.256;10.414;2022-11-20T04:44:02;4.80;;;3.83;;
70239;SDS011;57629;52.256;10.414;2022-11-20T04:45:04;4.47;;;4.03;;
70239;SDS011;57629;52.256;10.414;2022-11-20T04:46:05;5.22;;;4.38;;
70239;SDS011;57629;52.256;10.414;2022-11-20T04:47:06;4.37;;;3.97;;
70239;SDS011;57629;52.256;10.414;2022-11-20T04:48:07;5.10;;;4.32;;
70239;SDS011;57629;52.256;10.414;2022-11-20T04:49:07;5.27;;;4.30;;
70239;SDS011;57629;52.256;10.414;2022-11-20T04:50:08;4.88;;;4.00;;
70239;SDS011;57629;52.256;10.414;2022-11-20T04:51:09;4.10;;;3.60;;
70239;SDS011;57629;52.256;10.414;2022-11-20T04:52:10;5.72;;;4.40;;
70239;SDS011;57629;52.256;10.414;2022-11-20T04:53:11;4.57;;;3.92;;
70239;SDS011;57629;52.256;10.414;2022-11-20T04:54:12;5.27;;;4.07;;
70239;SDS011;57629;52.256;10.414;2022-11-20T04:55:12;4.57;;;4.00;;
70239;SDS011;57629;52.256;10.414;2022-11-20T04:56:13;4.95;;;4.10;;
70239;SDS011;57629;52.256;10.414;2022-11-20T04:57:15;4.73;;;3.73;;
70239;SDS011;57629;52.256;10.414;2022-11-20T04:58:16;4.70;;;4.20;;
70239;SDS011;57629;52.256;10.414;2022-11-20T04:59:17;4.30;;;3.83;;
70239;SDS011;57629;52.256;10.414;2022-11-20T05:00:18;4.50;;;3.97;;
70239;SDS011;57629;52.256;10.414;2022-11-20T05:01:19;4.88;;;3.97;;
70239;SDS011;57629;52.256;10.414;2022-11-20T05:02:21;4.63;;;4.10;;
70239;SDS011;57629;52.256;10.414;2022-11-20T05:03:22;4.57;;;3.97;;
70239;SDS011;57629;52.256;10.414;2022-11-20T05:04:22;4.73;;;4.00;;
70239;SDS011;57629;52.256;10.414;2022-11-20T05:05:23;5.03;;;4.10;;
70239;SDS011;57629;52.256;10.414;2022-11-20T05:06:24;5.93;;;4.28;;
70239;SDS011;57629;52.256;10.414;2022-11-20T05:07:24;5.30;;;4.17;;
70239;SDS011;57629;52.256;10.414;2022-11-20T05:08:25;4.78;;;4.05;;
70239;SDS011;57629;52.256;10.414;2022-11-20T05:09:25;4.83;;;3.93;;
70239;SDS011;57629;52.256;10.414;2022-11-20T05:10:26;4.57;;;3.72;;
70239;SDS011;57629;52.256;10.414;2022-11-20T05:11:27;4.07;;;3.57;;
70239;SDS011;57629;52.256;10.414;2022-11-20T05:12:29;5.45;;;3.85;;
70239;SDS011;57629;52.256;10.414;2022-11-20T05:13:31;4.47;;;3.85;;
70239;SDS011;57629;52.256;10.414;2022-11-20T05:14:32;5.07;;;3.90;;
70239;SDS011;57629;52.256;10.414;2022-11-20T05:15:32;4.90;;;4.10;;
70239;SDS011;57629;52.256;10.414;2022-11-20T05:16:33;5.10;;;4.07;;
70239;SDS011;57629;52.256;10.414;2022-11-20T05:17:34;4.95;;;4.25;;
70239;SDS011;57629;52.256;10.414;2022-11-20T05:18:35;4.55;;;3.92;;
70239;SDS011;57629;52.256;10.414;2022-11-20T05:19:37;5.05;;;4.00;;
70239;SDS011;57629;52.256;10.414;2022-11-20T05:20:37;4.47;;;3.73;;
70239;SDS011;57629;52.256;10.414;2022-11-20T05:21:38;5.10;;;4.13;;
70239;SDS011;57629;52.256;10.414;2022-11-20T05:22:39;5.63;;;3.80;;
70239;SDS011;57629;52.256;10.414;2022-11-20T05:23:40;4.82;;;3.83;;
70239;SDS011;57629;52.256;10.414;2022-11-20T05:24:41;4.43;;;3.70;;
70239;SDS011;57629;52.256;10.414;2022-11-20T05:25:42;4.63;;;3.70;;
70239;SDS011;57629;52.256;10.414;2022-11-20T05:26:42;4.60;;;4.10;;
70239;SDS011;57629;52.256;10.414;2022-11-20T05:27:44;4.70;;;3.97;;
70239;SDS011;57629;52.256;10.414;2022-11-20T05:28:45;4.00;;;3.30;;
70239;SDS011;57629;52.256;10.414;2022-11-20T05:29:46;4.72;;;4.07;;
70239;SDS011;57629;52.256;10.414;2022-11-20T05:30:46;4.78;;;3.80;;
70239;SDS011;57629;52.256;10.414;2022-11-20T05:31:47;5.27;;;4.10;;
70239;SDS011;57629;52.256;10.414;2022-11-20T05:32:48;5.70;;;4.20;;
70239;SDS011;57629;52.256;10.414;2022-11-20T05:33:48;5.60;;;4.47;;
70239;SDS011;57629;52.256;10.414;2022-11-20T05:34:49;5.05;;;4.25;;
70239;SDS011;57629;52.256;10.414;2022-11-20T05:35:50;4.10;;;3.70;;
70239;SDS011;57629;52.256;10.414;2022-11-20T05:36:50;5.00;;;3.97;;
70239;SDS011;57629;52.256;10.414;2022-11-20T05:37:51;4.43;;;3.83;;
70239;SDS011;57629;52.256;10.414;2022-11-20T05:38:51;5.00;;;4.07;;
70239;SDS011;57629;52.256;10.414;2022-11-20T05:39:52;4.40;;;3.87;;
70239;SDS011;57629;52.256;10.414;2022-11-20T05:40:52;5.70;;;4.20;;
70239;SDS011;57629;52.256;10.414;2022-11-20T05:41:53;5.17;;;4.23;;
70239;SDS011;57629;52.256;10.414;2022-11-20T05:42:55;5.60;;;4.00;;
70239;SDS011;57629;52.256;10.414;2022-11-20T05:43:56;5.55;;;4.05;;
70239;SDS011;57629;52.256;10.414;2022-11-20T05:44:57;5.10;;;4.35;;
70239;SDS011;57629;52.256;10.414;2022-11-20T05:45:58;5.07;;;4.00;;
70239;SDS011;57629;52.256;10.414;2022-11-20T05:46:58;4.28;;;3.88;;
70239;SDS011;57629;52.256;10.414;2022-11-20T05:47:59;4.73;;;4.13;;
70239;SDS011;57629;52.256;10.414;2022-11-20T05:49:00;4.88;;;4.15;;
70239;SDS011;57629;52.256;10.414;2022-11-20T05:50:01;4.85;;;3.83;;
70239;SDS011;57629;52.256;10.414;2022-11-20T05:51:02;4.67;;;3.87;;
70239;SDS011;57629;52.256;10.414;2022-11-20T05:52:05;4.43;;;3.70;;
70239;SDS011;57629;52.256;10.414;2022-11-20T05:53:06;4.47;;;3.75;;
70239;SDS011;57629;52.256;10.414;2022-11-20T05:54:06;4.90;;;4.10;;
70239;SDS011;57629;52.256;10.414;2022-11-20T05:55:07;4.75;;;3.55;;
70239;SDS011;57629;52.256;10.414;2022-11-20T05:56:09;4.68;;;4.15;;
70239;SDS011;57629;52.256;10.414;2022-11-20T05:57:10;4.72;;;3.75;;
70239;SDS011;57629;52.256;10.414;2022-11-20T05:58:12;4.30;;;3.80;;
70239;SDS011;57629;52.256;10.414;2022-11-20T05:59:13;5.00;;;4.10;;
70239;SDS011;57629;52.256;10.414;2022-11-20T06:00:14;5.13;;;3.92;;
70239;SDS011;57629;52.256;10.414;2022-11-20T06:01:16;4.72;;;3.95;;
70239;SDS011;57629;52.256;10.414;2022-11-20T06:02:17;5.03;;;4.20;;
70239;SDS011;57629;52.256;10.414;2022-11-20T06:03:18;4.37;;;3.37;;
70239;SDS011;57629;52.256;10.414;2022-11-20T06:04:19;4.97;;;3.92;;
70239;SDS011;57629;52.256;10.414;2022-11-20T06:05:20;5.10;;;3.80;;
70239;SDS011;57629;52.256;10.414;2022-11-20T06:06:20;4.93;;;3.90;;